Time;durP1;ratioP1;P1;durP2;ratioP2;P2;SDS_P1;SDS_P2;PMS_P1;PMS_P2;Temp;Humidity;BMP_temperature;BMP_pressure;BME280_temperature;BME280_humidity;BME280_pressure;Samples;Min_cycle;Max_cycle;Signal;HPM_P1;HPM_P2
2022/08/13 00:01:36;;;;;;;2.65;1.10;;;23.60;53.50;;;;;;5093386;28;20417;-65
2022/08/13 00:04:05;;;;;;;1.88;1.00;;;23.60;53.60;;;;;;5093717;28;20059;-65
2022/08/13 00:09:10;;;;;;;2.95;1.27;;;23.50;54.20;;;;;;5094324;28;20020;-65
2022/08/13 00:14:24;;;;;;;3.50;1.00;;;23.40;54.50;;;;;;5093341;28;20039;-65
2022/08/13 00:16:51;;;;;;;2.80;0.98;;;23.30;54.40;;;;;;5092856;28;20448;-65
2022/08/13 00:19:19;;;;;;;2.97;1.00;;;23.30;54.30;;;;;;5093208;28;20481;-65
2022/08/13 00:21:45;;;;;;;2.20;1.27;;;23.30;54.50;;;;;;5093159;28;20012;-65
2022/08/13 00:24:10;;;;;;;3.28;1.10;;;23.20;54.70;;;;;;5067031;28;20397;-65
2022/08/13 00:26:36;;;;;;;2.50;0.93;;;23.10;54.90;;;;;;5091943;28;20389;-65
2022/08/13 00:29:02;;;;;;;2.60;1.10;;;23.10;55.00;;;;;;5093196;28;20031;-65
2022/08/13 00:31:28;;;;;;;1.25;1.00;;;23.10;55.00;;;;;;5093394;28;20024;-65
2022/08/13 00:33:54;;;;;;;2.38;1.10;;;23.00;55.00;;;;;;5093105;28;20029;-65
2022/08/13 00:36:21;;;;;;;1.70;1.05;;;23.00;55.40;;;;;;5093111;28;20439;-65
2022/08/13 00:38:48;;;;;;;2.50;1.10;;;22.90;55.70;;;;;;5090574;28;20048;-65
2022/08/13 00:41:37;;;;;;;3.05;1.23;;;22.80;55.90;;;;;;5090006;28;20084;-65
2022/08/13 00:43:59;;;;;;;2.17;1.00;;;22.80;55.90;;;;;;5092638;28;20012;-65
2022/08/13 00:46:25;;;;;;;2.15;1.20;;;22.70;55.90;;;;;;5093069;28;20027;-65
2022/08/13 00:48:52;;;;;;;1.40;1.10;;;22.70;55.80;;;;;;5092692;28;20023;-65
2022/08/13 00:51:21;;;;;;;1.00;0.82;;;22.60;55.80;;;;;;5092838;28;20020;-65
2022/08/13 00:53:48;;;;;;;2.00;1.10;;;22.50;55.80;;;;;;5090347;28;20024;-65
2022/08/13 00:56:14;;;;;;;1.63;1.00;;;22.50;56.30;;;;;;5092719;28;20020;-65
2022/08/13 00:58:41;;;;;;;3.35;1.10;;;22.50;56.10;;;;;;5089961;28;20456;-65
2022/08/13 01:01:08;;;;;;;1.60;1.13;;;22.40;56.10;;;;;;5090085;28;20074;-65
2022/08/13 01:03:36;;;;;;;2.10;1.20;;;22.40;56.30;;;;;;5092543;28;20095;-65
2022/08/13 01:06:04;;;;;;;2.00;1.10;;;22.40;56.70;;;;;;5092150;28;20354;-65
2022/08/13 01:08:31;;;;;;;2.10;1.08;;;22.30;57.00;;;;;;5092576;28;20016;-65
2022/08/13 01:11:03;;;;;;;2.63;0.95;;;22.20;57.00;;;;;;5090635;28;20073;-65
2022/08/13 01:13:30;;;;;;;1.02;0.85;;;22.20;56.90;;;;;;5079977;28;20024;-65
2022/08/13 01:15:57;;;;;;;3.17;1.30;;;22.10;56.70;;;;;;5092398;28;20024;-65
2022/08/13 01:18:24;;;;;;;1.48;1.05;;;22.00;56.50;;;;;;5089979;28;20016;-64
2022/08/13 01:21:02;;;;;;;2.30;1.10;;;22.00;56.50;;;;;;5091072;28;20077;-65
2022/08/13 01:23:29;;;;;;;1.83;1.02;;;21.90;56.50;;;;;;5085604;28;20040;-65
2022/08/13 01:25:55;;;;;;;2.00;1.30;;;21.80;56.50;;;;;;5092967;28;20422;-65
2022/08/13 01:28:22;;;;;;;1.30;1.00;;;21.70;56.50;;;;;;5089424;28;20028;-65
2022/08/13 01:30:50;;;;;;;2.47;1.10;;;21.70;56.50;;;;;;5091313;28;20020;-65
2022/08/13 01:33:17;;;;;;;2.50;1.50;;;21.60;56.60;;;;;;5088495;28;20026;-65
2022/08/13 01:35:43;;;;;;;2.95;1.35;;;21.50;56.70;;;;;;5089895;28;20012;-65
2022/08/13 01:38:10;;;;;;;1.50;1.17;;;21.50;57.10;;;;;;5092092;28;20024;-65
2022/08/13 01:40:36;;;;;;;1.50;1.08;;;21.40;57.50;;;;;;5070570;28;20044;-65
2022/08/13 01:43:02;;;;;;;2.20;1.45;;;21.40;57.80;;;;;;5091659;28;20031;-65
2022/08/13 01:45:30;;;;;;;2.95;1.13;;;21.30;57.90;;;;;;5091783;28;20028;-65
2022/08/13 01:50:41;;;;;;;2.45;1.38;;;21.30;58.30;;;;;;5091103;28;20469;-65
2022/08/13 01:53:13;;;;;;;1.30;1.05;;;21.20;58.40;;;;;;5089112;28;20012;-65
2022/08/13 01:55:54;;;;;;;4.35;1.25;;;21.20;58.70;;;;;;5091520;28;20078;-65
2022/08/13 01:58:25;;;;;;;3.08;1.30;;;21.20;58.80;;;;;;5099407;28;20016;-65
2022/08/13 02:00:54;;;;;;;3.03;1.15;;;21.10;58.90;;;;;;5086708;28;20061;-65
2022/08/13 02:03:21;;;;;;;4.03;1.20;;;21.10;59.00;;;;;;5091263;28;20016;-65
2022/08/13 02:05:48;;;;;;;5.53;1.40;;;21.10;59.00;;;;;;5088565;28;20038;-65
2022/08/13 02:08:18;;;;;;;2.22;1.27;;;21.00;59.20;;;;;;5089461;28;20024;-65
2022/08/13 02:10:45;;;;;;;1.50;1.08;;;21.00;59.30;;;;;;5088348;28;20020;-66
2022/08/13 02:13:31;;;;;;;1.58;1.13;;;21.00;59.30;;;;;;5091122;28;20036;-65
2022/08/13 02:15:57;;;;;;;1.60;1.20;;;21.00;59.20;;;;;;5091125;28;20028;-65
2022/08/13 02:18:24;;;;;;;2.00;1.60;;;20.90;59.40;;;;;;5090795;28;20498;-65
2022/08/13 02:20:57;;;;;;;2.13;1.20;;;20.90;59.50;;;;;;5091444;28;20301;-65
2022/08/13 02:23:25;;;;;;;2.00;1.38;;;20.90;59.80;;;;;;5088039;28;20016;-65
2022/08/13 02:25:51;;;;;;;2.63;1.10;;;20.80;60.00;;;;;;5101608;28;20024;-65
2022/08/13 02:28:21;;;;;;;2.22;1.30;;;20.80;60.10;;;;;;5091222;28;20020;-65
2022/08/13 02:30:49;;;;;;;1.45;1.10;;;20.70;60.20;;;;;;5087863;28;20020;-65
2022/08/13 02:33:15;;;;;;;2.72;1.17;;;20.70;60.50;;;;;;5091139;28;20501;-65
2022/08/13 02:35:42;;;;;;;1.92;1.45;;;20.60;60.70;;;;;;5090817;28;20027;-65
2022/08/13 02:38:12;;;;;;;1.63;1.13;;;20.60;60.80;;;;;;5086481;28;20012;-65
2022/08/13 02:43:24;;;;;;;1.90;1.40;;;20.60;61.30;;;;;;5091288;28;20027;-65
2022/08/13 02:45:51;;;;;;;3.50;1.13;;;20.50;61.50;;;;;;5089445;28;20023;-65
2022/08/13 02:48:17;;;;;;;2.03;1.27;;;20.50;61.80;;;;;;5098996;28;20027;-65
2022/08/13 02:50:43;;;;;;;2.25;1.25;;;20.50;62.00;;;;;;5090936;28;20012;-65
2022/08/13 02:53:09;;;;;;;1.80;1.30;;;20.40;62.10;;;;;;5090919;28;20020;-66
2022/08/13 02:55:36;;;;;;;2.80;1.30;;;20.40;62.30;;;;;;5090070;28;20058;-65
2022/08/13 02:58:03;;;;;;;1.60;1.13;;;20.40;62.50;;;;;;5087544;28;20043;-65
2022/08/13 03:00:30;;;;;;;2.95;1.55;;;20.40;62.70;;;;;;5090709;28;20024;-65
2022/08/13 03:02:57;;;;;;;2.22;1.15;;;20.40;62.80;;;;;;5088508;28;20038;-65
2022/08/13 03:05:22;;;;;;;2.53;1.20;;;20.30;62.80;;;;;;5090425;28;20344;-65
2022/08/13 03:07:49;;;;;;;2.88;1.08;;;20.30;62.80;;;;;;5090582;28;20047;-65
2022/08/13 03:10:18;;;;;;;2.00;1.30;;;20.30;62.80;;;;;;5087982;28;20060;-65
2022/08/13 03:12:53;;;;;;;3.85;1.23;;;20.20;62.70;;;;;;5090536;28;20400;-65
2022/08/13 03:15:22;;;;;;;2.72;1.40;;;20.20;62.60;;;;;;5090305;28;20039;-65
2022/08/13 03:17:48;;;;;;;1.45;1.10;;;20.20;62.80;;;;;;5085034;28;20016;-66
2022/08/13 03:20:17;;;;;;;2.25;1.17;;;20.10;62.80;;;;;;5090474;28;20042;-65
2022/08/13 03:22:56;;;;;;;1.90;1.10;;;20.10;62.80;;;;;;5090476;28;20036;-65
2022/08/13 03:25:29;;;;;;;1.48;1.08;;;20.10;62.80;;;;;;5090109;28;20069;-65
2022/08/13 03:27:57;;;;;;;1.40;1.20;;;20.00;62.90;;;;;;5090612;28;20087;-65
2022/08/13 03:30:23;;;;;;;2.83;1.17;;;20.00;62.90;;;;;;5087778;28;20013;-65
2022/08/13 03:32:50;;;;;;;3.20;1.20;;;20.00;62.90;;;;;;5090156;28;20020;-65
2022/08/13 03:35:18;;;;;;;2.97;1.38;;;19.90;62.90;;;;;;5090659;28;20058;-65
2022/08/13 03:37:47;;;;;;;2.63;1.25;;;19.90;62.90;;;;;;5088242;28;20024;-66
2022/08/13 03:40:14;;;;;;;2.42;0.95;;;19.90;62.90;;;;;;5090119;28;20040;-65
2022/08/13 03:42:40;;;;;;;2.17;1.20;;;19.80;62.90;;;;;;5085053;28;20025;-65
2022/08/13 03:45:07;;;;;;;2.08;1.30;;;19.80;63.00;;;;;;5087653;28;20058;-65
2022/08/13 03:47:33;;;;;;;1.75;1.17;;;19.70;63.00;;;;;;5087041;28;20032;-65
2022/08/13 03:50:00;;;;;;;1.63;1.10;;;19.70;63.10;;;;;;5090659;28;20073;-65
2022/08/13 03:52:28;;;;;;;1.65;1.23;;;19.70;63.20;;;;;;5093884;28;20410;-65
2022/08/13 03:54:54;;;;;;;1.58;1.10;;;19.70;63.20;;;;;;5077560;28;20027;-66
2022/08/13 03:57:22;;;;;;;1.83;1.40;;;19.60;63.30;;;;;;5093809;28;20020;-65
2022/08/13 03:59:48;;;;;;;4.50;1.35;;;19.60;63.30;;;;;;5091283;28;20370;-65
2022/08/13 04:02:16;;;;;;;1.48;1.23;;;19.60;63.40;;;;;;5091273;28;20028;-65
2022/08/13 04:04:46;;;;;;;2.67;1.38;;;19.50;63.50;;;;;;5091057;28;20151;-65
2022/08/13 04:07:14;;;;;;;2.10;1.10;;;19.50;63.60;;;;;;5093459;28;20027;-65
2022/08/13 04:09:40;;;;;;;2.33;1.10;;;19.50;63.70;;;;;;5090999;28;20016;-65
2022/08/13 04:12:10;;;;;;;1.40;1.08;;;19.40;63.90;;;;;;5093461;28;20075;-65
2022/08/13 04:14:35;;;;;;;2.67;1.05;;;19.40;64.00;;;;;;5091038;28;20047;-65
2022/08/13 04:17:05;;;;;;;4.53;1.30;;;19.40;64.30;;;;;;5108355;28;20120;-65
2022/08/13 04:19:32;;;;;;;1.83;1.30;;;19.30;64.50;;;;;;5093600;28;20069;-66
2022/08/13 04:21:57;;;;;;;1.85;1.30;;;19.30;64.80;;;;;;5093251;28;20027;-65
2022/08/13 04:24:23;;;;;;;2.45;1.70;;;19.20;65.00;;;;;;5093481;28;20024;-65
2022/08/13 04:26:48;;;;;;;1.98;1.40;;;19.20;65.50;;;;;;5088394;28;20028;-65
2022/08/13 04:29:14;;;;;;;4.43;1.20;;;19.20;65.60;;;;;;5087473;28;20020;-65
2022/08/13 04:31:39;;;;;;;1.92;1.20;;;19.20;65.60;;;;;;5088706;28;20020;-65
2022/08/13 04:34:05;;;;;;;2.05;1.30;;;19.20;65.60;;;;;;5092933;28;20119;-65
2022/08/13 04:36:31;;;;;;;2.75;1.20;;;19.20;65.50;;;;;;5093108;28;20020;-65
2022/08/13 04:38:56;;;;;;;1.65;1.40;;;19.20;65.60;;;;;;5093089;28;20016;-65
2022/08/13 04:41:22;;;;;;;2.65;1.00;;;19.20;65.70;;;;;;5093111;28;20055;-65
2022/08/13 04:43:47;;;;;;;1.88;1.10;;;19.20;65.90;;;;;;5090300;28;20028;-65
2022/08/13 04:46:13;;;;;;;2.85;1.40;;;19.20;65.90;;;;;;5092866;28;20053;-65
2022/08/13 04:48:38;;;;;;;3.33;1.30;;;19.10;66.00;;;;;;5092828;28;20023;-65
2022/08/13 04:51:05;;;;;;;1.90;1.20;;;19.20;66.20;;;;;;5075777;28;20020;-66
2022/08/13 04:53:33;;;;;;;1.75;1.13;;;19.10;66.20;;;;;;5093330;28;20008;-65
2022/08/13 04:56:01;;;;;;;3.20;1.25;;;19.10;66.30;;;;;;5092616;28;20023;-66
2022/08/13 04:58:32;;;;;;;2.88;1.17;;;19.10;66.60;;;;;;5092667;28;20016;-66
2022/08/13 05:00:59;;;;;;;2.35;1.05;;;19.10;66.60;;;;;;5092621;28;20028;-65
2022/08/13 05:03:24;;;;;;;1.67;1.02;;;19.10;66.70;;;;;;5091253;28;20043;-65
2022/08/13 05:05:52;;;;;;;1.35;1.00;;;19.20;66.80;;;;;;5093219;28;20054;-65
2022/08/13 05:08:18;;;;;;;1.70;1.13;;;19.10;66.90;;;;;;5091304;28;20052;-66
2022/08/13 05:10:47;;;;;;;2.10;1.30;;;19.10;66.90;;;;;;5083806;28;20020;-67
2022/08/13 05:13:21;;;;;;;1.35;1.10;;;19.10;67.00;;;;;;5076954;28;20032;-66
2022/08/13 05:15:48;;;;;;;1.60;1.20;;;19.20;67.00;;;;;;5086902;28;20116;-66
2022/08/13 05:18:14;;;;;;;3.03;1.30;;;19.10;67.70;;;;;;5073394;28;20379;-65
2022/08/13 05:20:39;;;;;;;2.35;1.75;;;19.10;67.40;;;;;;5087963;28;20107;-65
2022/08/13 05:23:07;;;;;;;2.38;1.58;;;19.10;67.80;;;;;;5086832;28;20485;-65
2022/08/13 05:25:33;;;;;;;2.10;1.77;;;19.10;68.60;;;;;;5087182;28;20025;-66
2022/08/13 05:27:58;;;;;;;2.40;1.35;;;19.10;68.50;;;;;;5092851;28;20031;-65
2022/08/13 05:30:26;;;;;;;2.92;1.40;;;19.10;68.40;;;;;;5093071;28;20537;-65
2022/08/13 05:32:57;;;;;;;2.83;1.40;;;19.10;68.30;;;;;;5088339;28;20032;-65
2022/08/13 05:35:24;;;;;;;2.17;1.63;;;19.10;68.40;;;;;;5093425;28;20024;-65
2022/08/13 05:37:49;;;;;;;1.73;1.50;;;19.10;68.40;;;;;;5084873;28;20022;-65
2022/08/13 05:40:15;;;;;;;2.45;1.50;;;19.20;68.60;;;;;;5086831;28;20039;-65
2022/08/13 05:42:41;;;;;;;2.88;1.60;;;19.20;69.40;;;;;;5085963;28;20054;-65
2022/08/13 05:45:08;;;;;;;3.03;1.60;;;19.20;68.80;;;;;;5078032;28;20489;-66
2022/08/13 05:47:35;;;;;;;1.85;1.25;;;19.20;68.80;;;;;;5092931;28;20021;-65
2022/08/13 05:50:02;;;;;;;2.97;1.60;;;19.20;68.60;;;;;;5084382;28;20020;-65
2022/08/13 05:52:32;;;;;;;2.83;1.65;;;19.30;68.70;;;;;;5088462;28;20432;-65
2022/08/13 05:54:58;;;;;;;2.88;2.13;;;19.30;68.70;;;;;;5091651;28;20024;-65
2022/08/13 05:57:23;;;;;;;2.53;1.33;;;19.40;68.80;;;;;;5088354;28;20079;-66
2022/08/13 06:05:17;;;;;;;2.92;1.90;;;19.50;68.50;;;;;;5090638;28;20085;-65
2022/08/13 06:07:43;;;;;;;4.18;1.55;;;19.50;68.50;;;;;;5084799;28;20021;-66
2022/08/13 06:10:09;;;;;;;5.03;1.35;;;19.60;68.50;;;;;;5091957;28;20091;-65
2022/08/13 06:12:36;;;;;;;2.10;1.40;;;19.60;68.30;;;;;;5086559;28;20113;-65
2022/08/13 06:15:02;;;;;;;2.72;1.40;;;19.60;68.20;;;;;;5084538;28;20016;-66
2022/08/13 06:17:28;;;;;;;2.00;1.33;;;19.70;68.10;;;;;;5080270;28;20153;-66
2022/08/13 06:20:03;;;;;;;3.00;1.33;;;19.70;68.00;;;;;;5088662;28;20430;-66
2022/08/13 06:22:33;;;;;;;2.65;1.73;;;19.80;67.90;;;;;;5091477;28;20024;-66
2022/08/13 06:25:02;;;;;;;1.65;1.15;;;19.90;68.00;;;;;;5092564;28;20044;-66
2022/08/13 06:27:28;;;;;;;1.53;1.27;;;19.90;68.00;;;;;;5092253;28;20016;-65
2022/08/13 06:29:57;;;;;;;1.73;1.10;;;20.00;68.00;;;;;;5091591;28;20539;-66
2022/08/13 06:32:23;;;;;;;1.65;1.10;;;20.00;67.90;;;;;;5075676;28;20025;-66
2022/08/13 06:34:50;;;;;;;1.63;1.00;;;20.10;67.80;;;;;;5088534;28;20032;-66
2022/08/13 06:37:16;;;;;;;2.20;1.00;;;20.10;67.70;;;;;;5087783;28;20020;-66
2022/08/13 06:39:44;;;;;;;2.65;1.10;;;20.20;67.60;;;;;;5086821;28;20028;-66
2022/08/13 06:42:11;;;;;;;1.38;0.80;;;20.30;67.40;;;;;;5085556;28;20028;-65
2022/08/13 06:44:44;;;;;;;1.90;0.88;;;20.30;67.10;;;;;;5088798;28;20047;-66
2022/08/13 06:47:09;;;;;;;2.08;0.80;;;20.40;67.00;;;;;;5089408;28;20466;-66
2022/08/13 06:49:37;;;;;;;1.50;1.05;;;20.40;66.80;;;;;;5090257;28;20035;-66
2022/08/13 06:52:05;;;;;;;3.03;1.17;;;20.50;66.70;;;;;;5071655;28;20532;-66
2022/08/13 06:54:30;;;;;;;3.33;1.00;;;20.60;66.60;;;;;;5091862;28;20034;-66
2022/08/13 06:56:58;;;;;;;3.75;1.15;;;20.70;66.50;;;;;;5084785;28;20649;-65
2022/08/13 06:59:25;;;;;;;1.50;0.70;;;20.70;66.20;;;;;;5089061;28;20054;-65
2022/08/13 07:01:57;;;;;;;1.05;0.70;;;20.80;66.10;;;;;;5092353;28;20240;-65
2022/08/13 07:04:23;;;;;;;2.05;0.75;;;20.80;65.70;;;;;;5091670;28;20016;-66
2022/08/13 07:06:50;;;;;;;1.80;1.13;;;20.90;65.60;;;;;;5088006;28;20016;-66
2022/08/13 07:09:19;;;;;;;1.90;0.80;;;21.00;65.50;;;;;;5090257;28;20107;-65
2022/08/13 07:11:45;;;;;;;1.98;0.90;;;21.10;65.30;;;;;;5087898;28;20063;-65
2022/08/13 07:14:13;;;;;;;3.33;0.73;;;21.10;65.10;;;;;;5080685;28;20085;-66
2022/08/13 07:16:40;;;;;;;2.30;0.80;;;21.20;65.00;;;;;;5075458;28;20016;-66
2022/08/13 07:19:06;;;;;;;1.45;0.80;;;21.30;64.80;;;;;;5090506;28;20020;-66
2022/08/13 07:21:33;;;;;;;1.00;0.60;;;21.30;64.70;;;;;;5090378;28;20024;-66
2022/08/13 07:24:04;;;;;;;2.80;0.73;;;21.50;64.70;;;;;;5089488;28;20104;-66
2022/08/13 07:26:32;;;;;;;1.58;0.80;;;21.50;64.60;;;;;;5095333;28;20027;-66
2022/08/13 07:28:58;;;;;;;1.60;0.93;;;21.60;64.50;;;;;;5088632;28;20474;-66
2022/08/13 07:31:29;;;;;;;1.33;0.88;;;21.70;64.40;;;;;;5090508;28;20028;-66
2022/08/13 07:33:56;;;;;;;1.55;0.88;;;21.80;64.10;;;;;;5093942;28;20019;-66
2022/08/13 07:36:27;;;;;;;1.38;0.90;;;21.90;60.70;;;;;;5092259;28;20028;-66
2022/08/13 07:38:53;;;;;;;3.28;1.10;;;22.10;59.80;;;;;;5092490;28;20047;-66
2022/08/13 07:41:21;;;;;;;3.13;0.90;;;22.20;58.90;;;;;;5094278;28;20087;-65
2022/08/13 07:43:47;;;;;;;3.60;0.60;;;22.30;57.60;;;;;;5095484;28;20027;-65
2022/08/13 07:46:15;;;;;;;1.80;0.68;;;22.50;57.70;;;;;;5093713;28;20020;-66
2022/08/13 07:48:47;;;;;;;1.37;1.00;;;22.60;57.60;;;;;;5095168;28;20027;-66
2022/08/13 07:51:19;;;;;;;2.25;0.80;;;22.60;57.60;;;;;;5095209;28;20020;-66
2022/08/13 07:53:54;;;;;;;2.00;0.70;;;22.80;56.90;;;;;;5093961;28;20024;-66
2022/08/13 07:56:35;;;;;;;1.38;0.70;;;22.90;56.20;;;;;;5081759;28;20528;-65
2022/08/13 07:59:15;;;;;;;2.35;0.93;;;23.00;56.20;;;;;;5092772;28;20054;-66
2022/08/13 08:01:47;;;;;;;2.97;0.90;;;23.20;54.90;;;;;;5093656;28;20024;-66
2022/08/13 08:04:15;;;;;;;3.85;1.38;;;23.40;55.60;;;;;;5093760;28;20024;-66
2022/08/13 08:06:42;;;;;;;2.70;1.10;;;23.50;54.90;;;;;;5086548;28;20044;-65
2022/08/13 08:09:10;;;;;;;1.98;1.02;;;23.50;54.90;;;;;;5093432;28;20111;-65
2022/08/13 08:14:21;;;;;;;5.97;2.08;;;23.70;55.10;;;;;;5087035;28;20081;-66
2022/08/13 08:16:48;;;;;;;2.45;1.20;;;23.80;55.20;;;;;;5091729;28;20043;-66
2022/08/13 08:19:14;;;;;;;2.78;1.50;;;23.90;54.00;;;;;;5093029;28;20024;-65
2022/08/13 08:21:41;;;;;;;1.70;0.98;;;24.00;54.10;;;;;;5092951;28;20032;-66
2022/08/13 08:24:07;;;;;;;4.38;1.83;;;24.20;52.70;;;;;;5090891;28;20048;-66
2022/08/13 08:26:34;;;;;;;2.85;0.75;;;24.30;52.70;;;;;;5091736;28;20027;-65
2022/08/13 08:29:05;;;;;;;2.55;0.80;;;24.50;53.00;;;;;;5093223;28;20396;-66
2022/08/13 08:31:32;;;;;;;2.78;0.90;;;24.60;52.40;;;;;;5093252;28;20019;-65
2022/08/13 08:34:00;;;;;;;1.08;0.80;;;24.80;51.80;;;;;;5091707;28;20486;-66
2022/08/13 08:36:27;;;;;;;2.38;1.30;;;24.90;50.10;;;;;;5073838;28;20029;-65
2022/08/13 08:44:25;;;;;;;1.65;0.80;;;25.10;51.20;;;;;;5085383;28;20039;-65
2022/08/13 08:46:53;;;;;;;1.35;0.70;;;25.20;51.70;;;;;;5083823;28;20024;-66
2022/08/13 08:49:23;;;;;;;1.45;0.60;;;25.30;51.00;;;;;;5089142;28;20024;-66
2022/08/13 08:51:58;;;;;;;1.52;0.90;;;25.40;50.90;;;;;;5090540;28;20027;-65
2022/08/13 08:54:25;;;;;;;1.42;0.80;;;25.50;50.40;;;;;;5090597;28;20482;-66
2022/08/13 08:56:54;;;;;;;3.55;0.90;;;25.50;50.40;;;;;;5090000;28;20024;-66
2022/08/13 08:59:29;;;;;;;1.73;1.05;;;25.60;49.90;;;;;;5091061;28;20028;-66
2022/08/13 09:01:55;;;;;;;2.08;0.95;;;25.70;49.60;;;;;;5080633;28;20383;-65
2022/08/13 09:04:25;;;;;;;3.63;0.80;;;25.80;50.20;;;;;;5090313;28;20045;-66
2022/08/13 09:06:53;;;;;;;1.38;0.75;;;25.90;49.50;;;;;;5090768;28;20104;-65
2022/08/13 09:09:19;;;;;;;1.38;0.80;;;26.00;49.20;;;;;;5091112;28;20445;-66
2022/08/13 09:11:50;;;;;;;1.77;1.00;;;26.10;48.40;;;;;;5087049;28;20035;-65
2022/08/13 09:14:18;;;;;;;1.63;0.73;;;26.20;48.40;;;;;;5093474;28;20032;-66
2022/08/13 09:16:44;;;;;;;3.20;1.13;;;26.30;48.40;;;;;;5093906;28;20055;-66
2022/08/13 09:19:13;;;;;;;1.60;0.70;;;26.40;48.20;;;;;;5092706;28;20082;-66
2022/08/13 09:21:47;;;;;;;3.75;0.88;;;26.50;47.20;;;;;;5093678;28;20070;-66
2022/08/13 09:24:15;;;;;;;1.45;0.80;;;26.60;47.20;;;;;;5091584;28;20082;-65
2022/08/13 09:26:51;;;;;;;1.60;0.77;;;26.70;47.60;;;;;;5092230;28;20011;-66
2022/08/13 09:29:19;;;;;;;1.80;0.80;;;26.80;46.70;;;;;;5090255;28;20066;-66
2022/08/13 09:31:50;;;;;;;2.75;0.85;;;26.80;46.50;;;;;;5091781;28;20432;-66
2022/08/13 09:34:17;;;;;;;2.13;1.33;;;26.90;47.10;;;;;;5091641;28;20056;-66
2022/08/13 09:36:44;;;;;;;1.20;0.68;;;27.00;47.80;;;;;;5079313;28;20024;-66
2022/08/13 09:39:25;;;;;;;0.98;0.75;;;27.10;47.90;;;;;;5089371;28;20099;-66
2022/08/13 09:41:52;;;;;;;2.03;0.77;;;27.20;46.60;;;;;;5089018;28;20028;-66
2022/08/13 09:44:18;;;;;;;2.90;0.50;;;27.20;45.90;;;;;;5087763;28;20061;-66
2022/08/13 09:46:45;;;;;;;1.33;0.82;;;27.40;46.20;;;;;;5074840;28;20028;-66
2022/08/13 09:49:11;;;;;;;2.72;0.70;;;27.40;45.30;;;;;;5090792;28;20099;-66
2022/08/13 09:51:37;;;;;;;5.60;0.75;;;27.50;45.50;;;;;;5093236;28;20023;-66
2022/08/13 09:54:05;;;;;;;0.88;0.50;;;27.60;44.20;;;;;;5078094;28;20037;-66
2022/08/13 09:56:38;;;;;;;1.13;0.70;;;27.60;43.50;;;;;;5081062;28;20235;-66
2022/08/13 09:59:10;;;;;;;0.90;0.52;;;27.70;44.00;;;;;;5093028;28;20059;-66
2022/08/13 10:01:36;;;;;;;1.40;0.80;;;27.80;44.30;;;;;;5092741;28;20039;-66
2022/08/13 10:04:04;;;;;;;1.38;0.70;;;27.90;42.90;;;;;;5091591;28;20024;-66
2022/08/13 10:06:29;;;;;;;1.67;0.77;;;28.00;43.60;;;;;;5093103;28;20498;-66
2022/08/13 10:08:55;;;;;;;2.15;0.70;;;28.00;43.90;;;;;;5092541;28;20119;-66
2022/08/13 10:11:22;;;;;;;2.95;0.90;;;28.10;44.40;;;;;;5092934;28;20032;-66
2022/08/13 10:13:48;;;;;;;1.05;0.65;;;28.20;44.30;;;;;;5092479;28;20024;-66
2022/08/13 10:16:14;;;;;;;1.88;0.70;;;28.20;43.30;;;;;;5092787;28;20036;-66
2022/08/13 10:18:41;;;;;;;2.80;0.80;;;28.20;43.70;;;;;;5092284;28;20027;-66
2022/08/13 10:21:10;;;;;;;1.77;0.70;;;28.30;43.30;;;;;;5091570;28;20028;-66
2022/08/13 10:23:35;;;;;;;2.08;0.60;;;28.40;43.30;;;;;;5090172;28;20102;-66
2022/08/13 10:26:01;;;;;;;1.77;0.70;;;28.40;43.70;;;;;;5090634;28;20084;-66
2022/08/13 10:28:32;;;;;;;2.40;0.90;;;28.60;43.90;;;;;;5088240;28;20016;-66
2022/08/13 10:31:04;;;;;;;2.47;1.02;;;28.70;42.70;;;;;;5090618;28;20027;-66
2022/08/13 10:33:32;;;;;;;1.55;0.75;;;28.80;42.10;;;;;;5088660;28;20032;-66
2022/08/13 10:35:58;;;;;;;1.90;1.08;;;28.80;41.90;;;;;;5090145;28;20027;-66
2022/08/13 10:38:27;;;;;;;1.52;0.68;;;28.90;41.80;;;;;;5088527;28;20028;-66
2022/08/13 10:40:54;;;;;;;0.85;0.68;;;29.00;42.00;;;;;;5085773;28;20097;-66
2022/08/13 10:43:21;;;;;;;1.95;0.70;;;29.20;40.70;;;;;;5089291;28;20040;-66
2022/08/13 10:45:47;;;;;;;1.67;0.60;;;29.20;41.00;;;;;;5072868;28;20359;-66
2022/08/13 10:48:13;;;;;;;0.90;0.60;;;29.30;41.10;;;;;;5090409;28;20031;-66
2022/08/13 10:50:40;;;;;;;1.38;0.45;;;29.50;41.50;;;;;;5097325;28;20023;-66
2022/08/13 10:53:06;;;;;;;0.85;0.75;;;29.60;42.10;;;;;;5085513;28;20099;-66
2022/08/13 10:55:34;;;;;;;0.70;0.55;;;29.80;41.20;;;;;;5086404;28;20107;-66
2022/08/13 10:57:59;;;;;;;0.88;0.60;;;29.90;40.00;;;;;;5090808;28;20542;-66
2022/08/13 11:00:25;;;;;;;2.90;0.70;;;30.00;40.10;;;;;;5095136;28;20024;-66
2022/08/13 11:02:51;;;;;;;0.88;0.68;;;30.10;40.00;;;;;;5095039;28;20470;-66
2022/08/13 11:05:25;;;;;;;2.03;0.60;;;30.10;39.00;;;;;;5091027;28;20028;-66
2022/08/13 11:07:53;;;;;;;1.98;0.80;;;30.10;38.60;;;;;;5096311;28;20381;-66
2022/08/13 11:10:20;;;;;;;1.95;0.50;;;30.20;38.70;;;;;;5092255;28;20474;-66
2022/08/13 11:12:50;;;;;;;0.88;0.50;;;30.40;38.10;;;;;;5088748;28;20027;-66
2022/08/13 11:15:20;;;;;;;1.17;0.73;;;30.30;37.90;;;;;;5083044;28;20020;-66
2022/08/13 11:17:50;;;;;;;0.80;0.70;;;30.40;38.00;;;;;;5083605;28;20029;-66
2022/08/13 11:20:19;;;;;;;1.30;0.60;;;30.50;38.50;;;;;;5090312;28;20042;-66
2022/08/13 11:22:49;;;;;;;0.80;0.70;;;30.60;38.20;;;;;;5078204;28;20021;-67
2022/08/13 11:25:15;;;;;;;1.38;0.90;;;30.70;38.20;;;;;;5093758;28;20031;-66
2022/08/13 11:27:41;;;;;;;1.15;0.68;;;30.70;38.50;;;;;;5091451;28;20024;-66
2022/08/13 11:30:07;;;;;;;1.65;0.70;;;30.80;38.70;;;;;;5095014;28;20415;-66
2022/08/13 11:32:33;;;;;;;1.85;0.60;;;31.00;38.50;;;;;;5091147;28;20033;-66
2022/08/13 11:35:11;;;;;;;1.45;0.68;;;31.30;38.40;;;;;;5085356;28;20397;-66
2022/08/13 11:37:37;;;;;;;0.85;0.60;;;31.60;38.50;;;;;;5095564;28;20099;-66
2022/08/13 11:40:04;;;;;;;2.13;0.80;;;31.80;37.70;;;;;;5094184;28;20410;-66
2022/08/13 11:42:30;;;;;;;1.88;0.77;;;32.00;37.10;;;;;;5088116;28;20086;-67
2022/08/13 11:44:56;;;;;;;2.10;0.82;;;32.20;36.00;;;;;;5088537;28;20027;-67
2022/08/13 11:47:22;;;;;;;0.60;0.55;;;32.20;35.90;;;;;;5092052;28;20028;-67
2022/08/13 11:49:47;;;;;;;1.08;0.60;;;32.20;35.90;;;;;;5095297;28;20016;-67
2022/08/13 11:52:13;;;;;;;0.95;0.63;;;32.40;36.90;;;;;;5092848;28;20509;-66
2022/08/13 11:54:38;;;;;;;0.98;0.80;;;32.40;35.80;;;;;;5091104;28;20124;-67
2022/08/13 11:57:06;;;;;;;2.55;0.93;;;32.40;36.10;;;;;;5094026;28;20028;-67
2022/08/13 11:59:31;;;;;;;1.02;0.70;;;32.30;35.80;;;;;;5086270;28;20130;-67
2022/08/13 12:01:58;;;;;;;2.20;0.70;;;32.30;35.50;;;;;;5087084;28;20111;-67
2022/08/13 12:04:23;;;;;;;1.30;0.68;;;32.30;35.80;;;;;;5090248;28;20074;-66
2022/08/13 12:06:49;;;;;;;1.70;0.73;;;32.30;36.70;;;;;;5093923;28;20474;-67
2022/08/13 12:09:16;;;;;;;1.50;0.70;;;32.40;35.60;;;;;;5093991;28;20085;-67
2022/08/13 12:11:42;;;;;;;2.92;0.63;;;32.50;36.00;;;;;;5082016;28;20110;-67
2022/08/13 12:14:07;;;;;;;2.38;0.70;;;32.90;36.00;;;;;;5093583;28;20104;-67
2022/08/13 12:16:33;;;;;;;1.08;0.80;;;33.10;35.60;;;;;;5093891;28;20021;-67
2022/08/13 12:18:58;;;;;;;1.27;0.70;;;33.30;35.60;;;;;;5090942;28;20545;-67
2022/08/13 12:21:24;;;;;;;2.10;0.77;;;33.50;35.30;;;;;;5094802;28;20028;-67
2022/08/13 12:23:49;;;;;;;2.13;1.00;;;33.80;35.50;;;;;;5088112;28;20020;-67
2022/08/13 12:26:15;;;;;;;1.05;0.70;;;33.60;34.90;;;;;;5088228;28;20064;-67
2022/08/13 12:28:40;;;;;;;2.20;0.80;;;33.30;35.60;;;;;;5088155;28;20020;-67
2022/08/13 12:31:09;;;;;;;2.75;0.70;;;33.40;36.00;;;;;;5094258;28;20016;-67
2022/08/13 12:33:37;;;;;;;1.33;0.60;;;33.70;36.20;;;;;;5094778;28;20051;-67
2022/08/13 12:36:04;;;;;;;0.82;0.60;;;34.20;36.20;;;;;;5092916;28;20043;-67
2022/08/13 12:38:30;;;;;;;3.10;0.70;;;34.60;35.60;;;;;;5091789;28;20036;-67
2022/08/13 12:40:55;;;;;;;0.77;0.60;;;35.00;35.70;;;;;;5090973;28;20040;-67
2022/08/13 12:43:21;;;;;;;0.70;0.50;;;35.30;35.30;;;;;;5089784;28;20024;-67
2022/08/13 12:45:46;;;;;;;0.65;0.50;;;35.60;35.40;;;;;;5092689;28;20027;-67
2022/08/13 12:48:17;;;;;;;0.70;0.50;;;36.00;35.20;;;;;;5090258;28;20032;-67
2022/08/13 12:50:45;;;;;;;0.90;0.60;;;36.40;35.00;;;;;;5090388;28;20016;-67
2022/08/13 12:53:12;;;;;;;1.02;0.57;;;36.60;34.90;;;;;;5088883;28;20020;-67
2022/08/13 12:55:39;;;;;;;1.30;0.60;;;36.90;34.50;;;;;;5091705;28;20022;-67
2022/08/13 12:58:15;;;;;;;1.58;0.60;;;37.00;34.30;;;;;;5092101;28;20030;-67
2022/08/13 13:00:42;;;;;;;1.63;0.57;;;37.10;33.80;;;;;;5091821;28;20078;-67
2022/08/13 13:03:08;;;;;;;1.95;0.70;;;37.00;32.60;;;;;;5085036;28;20043;-67
2022/08/13 13:05:34;;;;;;;1.45;0.80;;;36.80;32.20;;;;;;5088294;28;20016;-67
2022/08/13 13:07:59;;;;;;;1.58;0.80;;;36.40;32.30;;;;;;5091435;28;20381;-67
2022/08/13 13:10:25;;;;;;;1.20;0.80;;;36.10;32.40;;;;;;5089589;28;20095;-67
2022/08/13 13:12:50;;;;;;;1.45;0.77;;;35.80;32.20;;;;;;5091203;28;20022;-67
2022/08/13 13:15:16;;;;;;;1.23;0.80;;;35.40;32.70;;;;;;5090154;28;20035;-67